sensor_id;sensor_type;location;lat;lon;timestamp;P1;durP1;ratioP1;P2;durP2;ratioP2
68655;SDS011;55638;51.122;13.606;2022-12-31T00:00:21;16.60;;;15.95;;
68655;SDS011;55638;51.122;13.606;2022-12-31T00:01:53;18.67;;;17.92;;
68655;SDS011;55638;51.122;13.606;2022-12-31T00:03:27;17.30;;;16.63;;
68655;SDS011;55638;51.122;13.606;2022-12-31T00:04:59;18.17;;;17.48;;
68655;SDS011;55638;51.122;13.606;2022-12-31T00:06:32;16.92;;;16.27;;
68655;SDS011;55638;51.122;13.606;2022-12-31T00:08:05;17.17;;;16.52;;
68655;SDS011;55638;51.122;13.606;2022-12-31T00:09:37;17.42;;;16.73;;
68655;SDS011;55638;51.122;13.606;2022-12-31T00:11:09;19.00;;;18.25;;
68655;SDS011;55638;51.122;13.606;2022-12-31T00:12:41;18.65;;;17.92;;
68655;SDS011;55638;51.122;13.606;2022-12-31T00:14:13;20.15;;;19.35;;
68655;SDS011;55638;51.122;13.606;2022-12-31T00:15:45;19.33;;;18.52;;
68655;SDS011;55638;51.122;13.606;2022-12-31T00:17:17;19.10;;;18.33;;
68655;SDS011;55638;51.122;13.606;2022-12-31T00:18:50;20.88;;;20.05;;
68655;SDS011;55638;51.122;13.606;2022-12-31T00:20:23;19.23;;;18.45;;
68655;SDS011;55638;51.122;13.606;2022-12-31T00:21:55;20.00;;;19.20;;
68655;SDS011;55638;51.122;13.606;2022-12-31T00:23:26;21.02;;;20.17;;
68655;SDS011;55638;51.122;13.606;2022-12-31T00:24:58;18.98;;;18.17;;
68655;SDS011;55638;51.122;13.606;2022-12-31T00:26:30;20.98;;;20.08;;
68655;SDS011;55638;51.122;13.606;2022-12-31T00:28:04;19.38;;;18.58;;
68655;SDS011;55638;51.122;13.606;2022-12-31T00:29:36;19.17;;;18.38;;
68655;SDS011;55638;51.122;13.606;2022-12-31T00:32:44;19.45;;;18.67;;
68655;SDS011;55638;51.122;13.606;2022-12-31T00:34:16;20.73;;;19.85;;
68655;SDS011;55638;51.122;13.606;2022-12-31T00:35:48;18.80;;;18.05;;
68655;SDS011;55638;51.122;13.606;2022-12-31T00:37:19;17.98;;;17.27;;
68655;SDS011;55638;51.122;13.606;2022-12-31T00:38:52;20.48;;;19.67;;
68655;SDS011;55638;51.122;13.606;2022-12-31T00:40:25;20.30;;;19.50;;
68655;SDS011;55638;51.122;13.606;2022-12-31T00:41:59;19.90;;;19.10;;
68655;SDS011;55638;51.122;13.606;2022-12-31T00:43:31;19.65;;;18.85;;
68655;SDS011;55638;51.122;13.606;2022-12-31T00:45:03;20.10;;;19.30;;
68655;SDS011;55638;51.122;13.606;2022-12-31T00:46:35;20.65;;;19.80;;
68655;SDS011;55638;51.122;13.606;2022-12-31T00:48:06;19.20;;;18.40;;
68655;SDS011;55638;51.122;13.606;2022-12-31T00:49:38;20.85;;;20.02;;
68655;SDS011;55638;51.122;13.606;2022-12-31T00:51:10;24.73;;;23.63;;
68655;SDS011;55638;51.122;13.606;2022-12-31T00:52:44;21.05;;;20.15;;
68655;SDS011;55638;51.122;13.606;2022-12-31T00:54:16;19.95;;;19.15;;
68655;SDS011;55638;51.122;13.606;2022-12-31T00:55:47;19.48;;;18.65;;
68655;SDS011;55638;51.122;13.606;2022-12-31T00:57:19;22.70;;;21.75;;
68655;SDS011;55638;51.122;13.606;2022-12-31T00:58:51;21.88;;;20.77;;
68655;SDS011;55638;51.122;13.606;2022-12-31T01:00:23;22.15;;;21.15;;
68655;SDS011;55638;51.122;13.606;2022-12-31T01:01:55;20.95;;;20.05;;
68655;SDS011;55638;51.122;13.606;2022-12-31T01:03:27;21.17;;;20.27;;
68655;SDS011;55638;51.122;13.606;2022-12-31T01:04:58;22.80;;;21.80;;
68655;SDS011;55638;51.122;13.606;2022-12-31T01:06:30;23.20;;;22.20;;
68655;SDS011;55638;51.122;13.606;2022-12-31T01:08:02;19.60;;;18.80;;
68655;SDS011;55638;51.122;13.606;2022-12-31T01:09:35;23.73;;;22.73;;
68655;SDS011;55638;51.122;13.606;2022-12-31T01:11:08;19.65;;;18.85;;
68655;SDS011;55638;51.122;13.606;2022-12-31T01:12:54;20.48;;;19.58;;
68655;SDS011;55638;51.122;13.606;2022-12-31T01:14:26;21.58;;;20.67;;
68655;SDS011;55638;51.122;13.606;2022-12-31T01:15:57;19.92;;;19.13;;
68655;SDS011;55638;51.122;13.606;2022-12-31T01:17:36;19.45;;;18.65;;
68655;SDS011;55638;51.122;13.606;2022-12-31T01:19:10;20.48;;;19.63;;
68655;SDS011;55638;51.122;13.606;2022-12-31T01:20:44;21.60;;;20.70;;
68655;SDS011;55638;51.122;13.606;2022-12-31T01:22:15;21.55;;;20.65;;
68655;SDS011;55638;51.122;13.606;2022-12-31T01:23:47;21.60;;;20.70;;
68655;SDS011;55638;51.122;13.606;2022-12-31T01:25:19;18.88;;;18.13;;
68655;SDS011;55638;51.122;13.606;2022-12-31T01:26:51;20.33;;;19.52;;
68655;SDS011;55638;51.122;13.606;2022-12-31T01:28:23;20.20;;;19.40;;
68655;SDS011;55638;51.122;13.606;2022-12-31T01:29:54;20.55;;;19.75;;
68655;SDS011;55638;51.122;13.606;2022-12-31T01:31:26;20.10;;;19.30;;
68655;SDS011;55638;51.122;13.606;2022-12-31T01:32:58;21.45;;;20.55;;
68655;SDS011;55638;51.122;13.606;2022-12-31T01:34:30;22.63;;;21.73;;
68655;SDS011;55638;51.122;13.606;2022-12-31T01:36:12;21.55;;;20.65;;
68655;SDS011;55638;51.122;13.606;2022-12-31T01:37:53;21.17;;;20.33;;
68655;SDS011;55638;51.122;13.606;2022-12-31T01:39:25;20.60;;;19.80;;
68655;SDS011;55638;51.122;13.606;2022-12-31T01:40:57;21.45;;;20.55;;
68655;SDS011;55638;51.122;13.606;2022-12-31T01:42:29;22.13;;;21.23;;
68655;SDS011;55638;51.122;13.606;2022-12-31T01:44:42;22.13;;;21.23;;
68655;SDS011;55638;51.122;13.606;2022-12-31T01:45:55;20.55;;;19.73;;
68655;SDS011;55638;51.122;13.606;2022-12-31T01:47:30;22.17;;;21.27;;
68655;SDS011;55638;51.122;13.606;2022-12-31T01:49:12;21.80;;;20.90;;
68655;SDS011;55638;51.122;13.606;2022-12-31T01:50:50;20.45;;;19.65;;
68655;SDS011;55638;51.122;13.606;2022-12-31T01:52:26;21.00;;;20.15;;
68655;SDS011;55638;51.122;13.606;2022-12-31T01:54:01;20.67;;;19.88;;
68655;SDS011;55638;51.122;13.606;2022-12-31T01:55:52;20.30;;;19.45;;
68655;SDS011;55638;51.122;13.606;2022-12-31T01:57:28;20.40;;;19.50;;
68655;SDS011;55638;51.122;13.606;2022-12-31T01:59:00;21.17;;;20.27;;
68655;SDS011;55638;51.122;13.606;2022-12-31T02:00:37;20.95;;;20.10;;
68655;SDS011;55638;51.122;13.606;2022-12-31T02:02:09;22.27;;;21.38;;
68655;SDS011;55638;51.122;13.606;2022-12-31T02:03:42;20.65;;;19.83;;
68655;SDS011;55638;51.122;13.606;2022-12-31T02:05:25;22.92;;;22.02;;
68655;SDS011;55638;51.122;13.606;2022-12-31T02:07:03;23.35;;;22.40;;
68655;SDS011;55638;51.122;13.606;2022-12-31T02:08:37;21.52;;;20.63;;
68655;SDS011;55638;51.122;13.606;2022-12-31T02:10:12;20.52;;;19.67;;
68655;SDS011;55638;51.122;13.606;2022-12-31T02:11:44;21.17;;;20.27;;
68655;SDS011;55638;51.122;13.606;2022-12-31T02:13:16;18.38;;;17.65;;
68655;SDS011;55638;51.122;13.606;2022-12-31T02:14:49;20.67;;;19.83;;
68655;SDS011;55638;51.122;13.606;2022-12-31T02:16:31;19.50;;;18.70;;
68655;SDS011;55638;51.122;13.606;2022-12-31T02:18:34;18.42;;;17.63;;
68655;SDS011;55638;51.122;13.606;2022-12-31T02:29:46;19.27;;;18.50;;
68655;SDS011;55638;51.122;13.606;2022-12-31T02:31:23;16.75;;;16.05;;
68655;SDS011;55638;51.122;13.606;2022-12-31T02:35:02;17.65;;;16.95;;
68655;SDS011;55638;51.122;13.606;2022-12-31T02:36:40;17.63;;;16.85;;
68655;SDS011;55638;51.122;13.606;2022-12-31T02:38:16;20.20;;;19.40;;
68655;SDS011;55638;51.122;13.606;2022-12-31T02:39:57;20.77;;;19.88;;
68655;SDS011;55638;51.122;13.606;2022-12-31T02:41:30;21.42;;;20.50;;
68655;SDS011;55638;51.122;13.606;2022-12-31T02:43:20;20.10;;;19.27;;
68655;SDS011;55638;51.122;13.606;2022-12-31T02:44:52;20.25;;;19.42;;
68655;SDS011;55638;51.122;13.606;2022-12-31T02:46:27;20.80;;;19.92;;
68655;SDS011;55638;51.122;13.606;2022-12-31T02:48:25;19.15;;;18.38;;
68655;SDS011;55638;51.122;13.606;2022-12-31T02:52:09;17.63;;;16.95;;
68655;SDS011;55638;51.122;13.606;2022-12-31T02:53:48;18.23;;;17.42;;
68655;SDS011;55638;51.122;13.606;2022-12-31T02:57:33;18.33;;;17.55;;
68655;SDS011;55638;51.122;13.606;2022-12-31T03:01:12;17.90;;;17.17;;
68655;SDS011;55638;51.122;13.606;2022-12-31T03:03:07;17.55;;;16.85;;
68655;SDS011;55638;51.122;13.606;2022-12-31T03:04:41;18.60;;;17.80;;
68655;SDS011;55638;51.122;13.606;2022-12-31T03:06:32;18.13;;;17.38;;
68655;SDS011;55638;51.122;13.606;2022-12-31T03:08:05;18.88;;;18.08;;
68655;SDS011;55638;51.122;13.606;2022-12-31T03:09:37;19.98;;;19.05;;
68655;SDS011;55638;51.122;13.606;2022-12-31T03:11:08;19.65;;;18.83;;
68655;SDS011;55638;51.122;13.606;2022-12-31T03:13:00;17.63;;;16.90;;
68655;SDS011;55638;51.122;13.606;2022-12-31T03:14:32;20.15;;;19.33;;
68655;SDS011;55638;51.122;13.606;2022-12-31T03:16:04;22.25;;;21.33;;
68655;SDS011;55638;51.122;13.606;2022-12-31T03:17:36;21.38;;;20.48;;
68655;SDS011;55638;51.122;13.606;2022-12-31T03:19:08;22.70;;;21.73;;
68655;SDS011;55638;51.122;13.606;2022-12-31T03:20:58;21.40;;;20.52;;
68655;SDS011;55638;51.122;13.606;2022-12-31T03:22:49;19.33;;;18.58;;
68655;SDS011;55638;51.122;13.606;2022-12-31T03:24:21;23.85;;;22.88;;
68655;SDS011;55638;51.122;13.606;2022-12-31T03:26:12;22.42;;;21.52;;
68655;SDS011;55638;51.122;13.606;2022-12-31T03:27:44;24.98;;;23.98;;
68655;SDS011;55638;51.122;13.606;2022-12-31T03:29:17;24.90;;;23.90;;
68655;SDS011;55638;51.122;13.606;2022-12-31T03:30:50;22.77;;;21.85;;
68655;SDS011;55638;51.122;13.606;2022-12-31T03:32:24;25.75;;;24.70;;
68655;SDS011;55638;51.122;13.606;2022-12-31T03:33:56;26.58;;;25.50;;
68655;SDS011;55638;51.122;13.606;2022-12-31T03:35:28;26.58;;;25.50;;
68655;SDS011;55638;51.122;13.606;2022-12-31T03:37:01;22.40;;;21.48;;
68655;SDS011;55638;51.122;13.606;2022-12-31T03:38:33;25.73;;;24.67;;
68655;SDS011;55638;51.122;13.606;2022-12-31T03:40:06;25.73;;;24.67;;
68655;SDS011;55638;51.122;13.606;2022-12-31T03:41:41;25.73;;;24.65;;
68655;SDS011;55638;51.122;13.606;2022-12-31T03:43:13;27.25;;;26.13;;
68655;SDS011;55638;51.122;13.606;2022-12-31T03:44:45;29.17;;;27.98;;
68655;SDS011;55638;51.122;13.606;2022-12-31T03:46:17;28.65;;;27.45;;
68655;SDS011;55638;51.122;13.606;2022-12-31T03:47:48;28.70;;;27.52;;
68655;SDS011;55638;51.122;13.606;2022-12-31T03:49:20;29.63;;;28.38;;
68655;SDS011;55638;51.122;13.606;2022-12-31T03:50:53;28.40;;;27.23;;
68655;SDS011;55638;51.122;13.606;2022-12-31T03:52:25;28.65;;;27.45;;
68655;SDS011;55638;51.122;13.606;2022-12-31T03:53:57;29.77;;;28.52;;
68655;SDS011;55638;51.122;13.606;2022-12-31T03:55:29;28.33;;;27.17;;
68655;SDS011;55638;51.122;13.606;2022-12-31T03:57:01;29.63;;;28.38;;
68655;SDS011;55638;51.122;13.606;2022-12-31T03:58:32;30.63;;;29.33;;
68655;SDS011;55638;51.122;13.606;2022-12-31T04:00:05;31.33;;;30.00;;
68655;SDS011;55638;51.122;13.606;2022-12-31T04:01:39;29.45;;;28.20;;
68655;SDS011;55638;51.122;13.606;2022-12-31T04:03:11;32.30;;;30.90;;
68655;SDS011;55638;51.122;13.606;2022-12-31T04:04:42;30.58;;;29.30;;
68655;SDS011;55638;51.122;13.606;2022-12-31T04:06:14;32.70;;;31.23;;
68655;SDS011;55638;51.122;13.606;2022-12-31T04:07:46;34.28;;;32.83;;
68655;SDS011;55638;51.122;13.606;2022-12-31T04:09:18;31.95;;;30.60;;
68655;SDS011;55638;51.122;13.606;2022-12-31T04:10:50;30.65;;;29.35;;
68655;SDS011;55638;51.122;13.606;2022-12-31T04:12:22;32.10;;;30.73;;
68655;SDS011;55638;51.122;13.606;2022-12-31T04:13:54;29.95;;;28.65;;
68655;SDS011;55638;51.122;13.606;2022-12-31T04:15:25;30.30;;;29.00;;
68655;SDS011;55638;51.122;13.606;2022-12-31T04:16:57;33.83;;;32.33;;
68655;SDS011;55638;51.122;13.606;2022-12-31T04:18:29;32.13;;;30.75;;
68655;SDS011;55638;51.122;13.606;2022-12-31T04:20:01;31.88;;;30.52;;
68655;SDS011;55638;51.122;13.606;2022-12-31T04:21:34;33.72;;;32.30;;
68655;SDS011;55638;51.122;13.606;2022-12-31T04:23:06;32.28;;;30.88;;
68655;SDS011;55638;51.122;13.606;2022-12-31T04:24:38;31.70;;;30.38;;
68655;SDS011;55638;51.122;13.606;2022-12-31T04:26:09;33.10;;;31.70;;
68655;SDS011;55638;51.122;13.606;2022-12-31T04:27:41;33.97;;;32.47;;
68655;SDS011;55638;51.122;13.606;2022-12-31T04:29:16;32.78;;;31.38;;
68655;SDS011;55638;51.122;13.606;2022-12-31T04:30:49;32.10;;;30.70;;
68655;SDS011;55638;51.122;13.606;2022-12-31T04:32:21;35.35;;;33.83;;
68655;SDS011;55638;51.122;13.606;2022-12-31T04:33:52;35.17;;;33.53;;
68655;SDS011;55638;51.122;13.606;2022-12-31T04:35:24;34.20;;;32.70;;
68655;SDS011;55638;51.122;13.606;2022-12-31T04:36:56;33.42;;;32.00;;
68655;SDS011;55638;51.122;13.606;2022-12-31T04:38:28;33.63;;;32.22;;
68655;SDS011;55638;51.122;13.606;2022-12-31T04:40:00;32.05;;;30.67;;
68655;SDS011;55638;51.122;13.606;2022-12-31T04:41:37;34.85;;;33.35;;
68655;SDS011;55638;51.122;13.606;2022-12-31T04:43:08;37.25;;;35.60;;
68655;SDS011;55638;51.122;13.606;2022-12-31T04:44:40;33.83;;;32.33;;
68655;SDS011;55638;51.122;13.606;2022-12-31T04:46:12;34.65;;;33.10;;
68655;SDS011;55638;51.122;13.606;2022-12-31T04:47:44;33.22;;;31.80;;
68655;SDS011;55638;51.122;13.606;2022-12-31T04:49:16;33.15;;;31.73;;
68655;SDS011;55638;51.122;13.606;2022-12-31T04:50:48;35.65;;;34.00;;
68655;SDS011;55638;51.122;13.606;2022-12-31T04:52:20;32.78;;;31.38;;
68655;SDS011;55638;51.122;13.606;2022-12-31T04:53:52;34.10;;;32.60;;
68655;SDS011;55638;51.122;13.606;2022-12-31T04:55:24;34.13;;;32.63;;
68655;SDS011;55638;51.122;13.606;2022-12-31T04:56:56;33.50;;;32.05;;
68655;SDS011;55638;51.122;13.606;2022-12-31T04:58:27;34.25;;;32.75;;
68655;SDS011;55638;51.122;13.606;2022-12-31T04:59:59;32.72;;;31.33;;
68655;SDS011;55638;51.122;13.606;2022-12-31T05:01:32;36.15;;;34.55;;
68655;SDS011;55638;51.122;13.606;2022-12-31T05:03:04;34.83;;;33.35;;
68655;SDS011;55638;51.122;13.606;2022-12-31T05:04:35;33.17;;;31.67;;
68655;SDS011;55638;51.122;13.606;2022-12-31T05:06:14;33.35;;;31.92;;
68655;SDS011;55638;51.122;13.606;2022-12-31T05:07:48;35.45;;;33.90;;
68655;SDS011;55638;51.122;13.606;2022-12-31T05:09:20;35.70;;;34.10;;
68655;SDS011;55638;51.122;13.606;2022-12-31T05:10:54;34.72;;;33.22;;
68655;SDS011;55638;51.122;13.606;2022-12-31T05:12:26;34.80;;;33.30;;
68655;SDS011;55638;51.122;13.606;2022-12-31T05:13:58;33.38;;;31.95;;
68655;SDS011;55638;51.122;13.606;2022-12-31T05:15:30;34.25;;;32.78;;
68655;SDS011;55638;51.122;13.606;2022-12-31T05:17:02;36.03;;;34.42;;
68655;SDS011;55638;51.122;13.606;2022-12-31T05:18:34;35.13;;;33.63;;
68655;SDS011;55638;51.122;13.606;2022-12-31T05:20:06;35.50;;;33.88;;
68655;SDS011;55638;51.122;13.606;2022-12-31T05:21:38;33.97;;;32.50;;
68655;SDS011;55638;51.122;13.606;2022-12-31T05:23:10;34.53;;;33.03;;
68655;SDS011;55638;51.122;13.606;2022-12-31T05:24:42;33.92;;;32.42;;
68655;SDS011;55638;51.122;13.606;2022-12-31T05:26:14;36.88;;;35.28;;
68655;SDS011;55638;51.122;13.606;2022-12-31T05:27:46;33.90;;;32.40;;
68655;SDS011;55638;51.122;13.606;2022-12-31T05:29:18;34.95;;;33.40;;
68655;SDS011;55638;51.122;13.606;2022-12-31T05:30:49;35.80;;;34.20;;
68655;SDS011;55638;51.122;13.606;2022-12-31T05:32:21;33.38;;;31.92;;
68655;SDS011;55638;51.122;13.606;2022-12-31T05:33:53;31.63;;;30.25;;
68655;SDS011;55638;51.122;13.606;2022-12-31T05:35:25;38.28;;;36.55;;
68655;SDS011;55638;51.122;13.606;2022-12-31T05:36:57;40.67;;;38.88;;
68655;SDS011;55638;51.122;13.606;2022-12-31T05:38:28;33.47;;;31.98;;
68655;SDS011;55638;51.122;13.606;2022-12-31T05:40:00;32.95;;;31.48;;
68655;SDS011;55638;51.122;13.606;2022-12-31T05:41:32;35.53;;;33.92;;
68655;SDS011;55638;51.122;13.606;2022-12-31T05:43:04;35.97;;;34.38;;
68655;SDS011;55638;51.122;13.606;2022-12-31T05:44:36;33.95;;;32.45;;
68655;SDS011;55638;51.122;13.606;2022-12-31T05:46:07;33.15;;;31.73;;
68655;SDS011;55638;51.122;13.606;2022-12-31T05:47:40;32.70;;;31.30;;
68655;SDS011;55638;51.122;13.606;2022-12-31T05:49:12;35.72;;;34.13;;
68655;SDS011;55638;51.122;13.606;2022-12-31T05:50:44;34.03;;;32.53;;
68655;SDS011;55638;51.122;13.606;2022-12-31T05:52:16;34.25;;;32.75;;
68655;SDS011;55638;51.122;13.606;2022-12-31T05:53:48;31.52;;;30.17;;
68655;SDS011;55638;51.122;13.606;2022-12-31T05:55:19;34.80;;;33.30;;
68655;SDS011;55638;51.122;13.606;2022-12-31T05:56:51;34.40;;;32.90;;
68655;SDS011;55638;51.122;13.606;2022-12-31T05:58:23;34.83;;;33.33;;
68655;SDS011;55638;51.122;13.606;2022-12-31T05:59:55;34.83;;;33.33;;
68655;SDS011;55638;51.122;13.606;2022-12-31T06:01:27;32.30;;;30.90;;
68655;SDS011;55638;51.122;13.606;2022-12-31T06:02:59;35.85;;;34.28;;
68655;SDS011;55638;51.122;13.606;2022-12-31T06:04:31;32.70;;;31.27;;
68655;SDS011;55638;51.122;13.606;2022-12-31T06:06:03;36.13;;;34.53;;
68655;SDS011;55638;51.122;13.606;2022-12-31T06:07:35;35.70;;;34.10;;
68655;SDS011;55638;51.122;13.606;2022-12-31T06:09:07;34.22;;;32.72;;
68655;SDS011;55638;51.122;13.606;2022-12-31T06:10:39;33.92;;;32.45;;
68655;SDS011;55638;51.122;13.606;2022-12-31T06:12:11;35.67;;;34.08;;
68655;SDS011;55638;51.122;13.606;2022-12-31T06:13:43;34.88;;;33.38;;
68655;SDS011;55638;51.122;13.606;2022-12-31T06:15:15;36.30;;;34.70;;
68655;SDS011;55638;51.122;13.606;2022-12-31T06:16:47;33.92;;;32.45;;
68655;SDS011;55638;51.122;13.606;2022-12-31T06:18:20;33.17;;;31.75;;
68655;SDS011;55638;51.122;13.606;2022-12-31T06:19:51;37.55;;;35.85;;
68655;SDS011;55638;51.122;13.606;2022-12-31T06:21:23;39.95;;;38.08;;
68655;SDS011;55638;51.122;13.606;2022-12-31T06:22:55;34.72;;;33.22;;
68655;SDS011;55638;51.122;13.606;2022-12-31T06:24:27;38.17;;;36.47;;
68655;SDS011;55638;51.122;13.606;2022-12-31T06:26:02;36.13;;;34.53;;
68655;SDS011;55638;51.122;13.606;2022-12-31T06:27:37;32.65;;;31.25;;
68655;SDS011;55638;51.122;13.606;2022-12-31T06:29:08;33.65;;;32.15;;
68655;SDS011;55638;51.122;13.606;2022-12-31T06:30:40;36.03;;;34.42;;
68655;SDS011;55638;51.122;13.606;2022-12-31T06:32:12;33.42;;;31.92;;
68655;SDS011;55638;51.122;13.606;2022-12-31T06:33:44;34.33;;;32.83;;
68655;SDS011;55638;51.122;13.606;2022-12-31T06:35:17;32.65;;;31.23;;
68655;SDS011;55638;51.122;13.606;2022-12-31T06:36:49;34.08;;;32.58;;
68655;SDS011;55638;51.122;13.606;2022-12-31T06:38:20;35.83;;;34.22;;
68655;SDS011;55638;51.122;13.606;2022-12-31T06:39:52;36.08;;;34.47;;
68655;SDS011;55638;51.122;13.606;2022-12-31T06:41:24;35.60;;;34.00;;
68655;SDS011;55638;51.122;13.606;2022-12-31T06:42:56;36.47;;;34.88;;
68655;SDS011;55638;51.122;13.606;2022-12-31T06:44:30;34.47;;;32.97;;
68655;SDS011;55638;51.122;13.606;2022-12-31T06:46:03;33.53;;;32.03;;
68655;SDS011;55638;51.122;13.606;2022-12-31T06:47:35;34.60;;;33.10;;
68655;SDS011;55638;51.122;13.606;2022-12-31T06:49:07;34.03;;;32.50;;
68655;SDS011;55638;51.122;13.606;2022-12-31T06:50:39;34.03;;;32.53;;
68655;SDS011;55638;51.122;13.606;2022-12-31T06:52:11;34.80;;;33.30;;
68655;SDS011;55638;51.122;13.606;2022-12-31T06:53:43;36.15;;;34.55;;
68655;SDS011;55638;51.122;13.606;2022-12-31T06:55:16;33.40;;;31.90;;
68655;SDS011;55638;51.122;13.606;2022-12-31T06:56:48;33.47;;;31.98;;
68655;SDS011;55638;51.122;13.606;2022-12-31T06:58:20;37.03;;;35.28;;
68655;SDS011;55638;51.122;13.606;2022-12-31T06:59:52;37.95;;;36.25;;
68655;SDS011;55638;51.122;13.606;2022-12-31T07:01:29;33.03;;;31.52;;
68655;SDS011;55638;51.122;13.606;2022-12-31T07:05:05;34.08;;;32.58;;
68655;SDS011;55638;51.122;13.606;2022-12-31T07:06:47;36.33;;;34.72;;
68655;SDS011;55638;51.122;13.606;2022-12-31T07:10:41;34.80;;;33.20;;
68655;SDS011;55638;51.122;13.606;2022-12-31T07:12:38;37.00;;;35.30;;
68655;SDS011;55638;51.122;13.606;2022-12-31T07:16:14;37.70;;;36.00;;
68655;SDS011;55638;51.122;13.606;2022-12-31T07:17:59;39.35;;;37.47;;
68655;SDS011;55638;51.122;13.606;2022-12-31T07:19:44;39.25;;;37.40;;
68655;SDS011;55638;51.122;13.606;2022-12-31T07:21:34;36.95;;;35.25;;
68655;SDS011;55638;51.122;13.606;2022-12-31T07:23:08;36.85;;;35.15;;
68655;SDS011;55638;51.122;13.606;2022-12-31T07:24:41;40.53;;;38.58;;
68655;SDS011;55638;51.122;13.606;2022-12-31T07:26:39;41.35;;;39.47;;
68655;SDS011;55638;51.122;13.606;2022-12-31T07:28:40;40.53;;;38.70;;
68655;SDS011;55638;51.122;13.606;2022-12-31T07:30:21;41.17;;;39.28;;
68655;SDS011;55638;51.122;13.606;2022-12-31T07:34:05;42.05;;;40.15;;
68655;SDS011;55638;51.122;13.606;2022-12-31T07:35:48;39.25;;;37.45;;
68655;SDS011;55638;51.122;13.606;2022-12-31T07:39:45;39.95;;;38.15;;
68655;SDS011;55638;51.122;13.606;2022-12-31T07:41:44;41.63;;;39.72;;
68655;SDS011;55638;51.122;13.606;2022-12-31T07:45:14;40.25;;;38.45;;
68655;SDS011;55638;51.122;13.606;2022-12-31T07:46:55;37.78;;;36.08;;
68655;SDS011;55638;51.122;13.606;2022-12-31T07:48:31;43.13;;;41.13;;
68655;SDS011;55638;51.122;13.606;2022-12-31T07:50:03;43.88;;;41.88;;
68655;SDS011;55638;51.122;13.606;2022-12-31T07:51:35;42.03;;;40.13;;
68655;SDS011;55638;51.122;13.606;2022-12-31T07:53:07;46.75;;;44.58;;
68655;SDS011;55638;51.122;13.606;2022-12-31T07:54:39;44.80;;;42.78;;
68655;SDS011;55638;51.122;13.606;2022-12-31T07:56:11;40.95;;;39.13;;
68655;SDS011;55638;51.122;13.606;2022-12-31T08:01:48;47.60;;;45.38;;
68655;SDS011;55638;51.122;13.606;2022-12-31T08:05:30;39.45;;;37.58;;
68655;SDS011;55638;51.122;13.606;2022-12-31T08:07:14;52.25;;;49.90;;
68655;SDS011;55638;51.122;13.606;2022-12-31T08:10:38;51.72;;;49.38;;
68655;SDS011;55638;51.122;13.606;2022-12-31T08:12:40;47.42;;;45.28;;
68655;SDS011;55638;51.122;13.606;2022-12-31T08:14:13;54.78;;;52.28;;
68655;SDS011;55638;51.122;13.606;2022-12-31T08:15:46;57.08;;;54.42;;
68655;SDS011;55638;51.122;13.606;2022-12-31T08:17:18;57.53;;;54.88;;
68655;SDS011;55638;51.122;13.606;2022-12-31T08:18:51;64.07;;;61.15;;
68655;SDS011;55638;51.122;13.606;2022-12-31T08:20:23;64.57;;;61.63;;
68655;SDS011;55638;51.122;13.606;2022-12-31T08:22:02;60.63;;;57.85;;
68655;SDS011;55638;51.122;13.606;2022-12-31T08:23:47;58.97;;;56.30;;
68655;SDS011;55638;51.122;13.606;2022-12-31T08:27:26;62.90;;;59.97;;
68655;SDS011;55638;51.122;13.606;2022-12-31T08:29:15;62.08;;;59.22;;
68655;SDS011;55638;51.122;13.606;2022-12-31T08:31:01;56.25;;;53.70;;
68655;SDS011;55638;51.122;13.606;2022-12-31T08:32:45;61.40;;;58.55;;
68655;SDS011;55638;51.122;13.606;2022-12-31T08:38:14;62.72;;;59.75;;
68655;SDS011;55638;51.122;13.606;2022-12-31T08:40:06;57.53;;;54.85;;
68655;SDS011;55638;51.122;13.606;2022-12-31T08:42:02;42.00;;;40.08;;
68655;SDS011;55638;51.122;13.606;2022-12-31T08:45:33;55.80;;;53.17;;
68655;SDS011;55638;51.122;13.606;2022-12-31T08:47:17;58.47;;;55.72;;
68655;SDS011;55638;51.122;13.606;2022-12-31T08:49:09;56.60;;;54.00;;
68655;SDS011;55638;51.122;13.606;2022-12-31T08:50:41;65.03;;;62.00;;
68655;SDS011;55638;51.122;13.606;2022-12-31T08:52:14;58.15;;;55.42;;
68655;SDS011;55638;51.122;13.606;2022-12-31T08:53:50;44.42;;;42.35;;
68655;SDS011;55638;51.122;13.606;2022-12-31T08:55:23;67.45;;;64.32;;
68655;SDS011;55638;51.122;13.606;2022-12-31T08:59:07;50.75;;;48.45;;
68655;SDS011;55638;51.122;13.606;2022-12-31T09:00:48;65.82;;;62.78;;
68655;SDS011;55638;51.122;13.606;2022-12-31T09:06:41;48.47;;;46.25;;
68655;SDS011;55638;51.122;13.606;2022-12-31T09:10:25;45.58;;;43.53;;
68655;SDS011;55638;51.122;13.606;2022-12-31T09:15:54;56.08;;;53.47;;
68655;SDS011;55638;51.122;13.606;2022-12-31T09:17:50;44.28;;;42.28;;
68655;SDS011;55638;51.122;13.606;2022-12-31T09:19:22;53.42;;;50.97;;
68655;SDS011;55638;51.122;13.606;2022-12-31T09:20:54;64.15;;;61.20;;
68655;SDS011;55638;51.122;13.606;2022-12-31T09:22:26;66.25;;;63.15;;
68655;SDS011;55638;51.122;13.606;2022-12-31T09:23:58;67.45;;;64.30;;
68655;SDS011;55638;51.122;13.606;2022-12-31T09:25:47;36.00;;;34.38;;
68655;SDS011;55638;51.122;13.606;2022-12-31T09:27:29;60.10;;;57.35;;
68655;SDS011;55638;51.122;13.606;2022-12-31T09:29:11;44.13;;;42.13;;
68655;SDS011;55638;51.122;13.606;2022-12-31T09:31:02;45.10;;;43.05;;
68655;SDS011;55638;51.122;13.606;2022-12-31T09:32:53;56.58;;;53.85;;
68655;SDS011;55638;51.122;13.606;2022-12-31T09:34:39;56.92;;;54.28;;
68655;SDS011;55638;51.122;13.606;2022-12-31T09:36:21;67.47;;;64.35;;
68655;SDS011;55638;51.122;13.606;2022-12-31T09:38:26;63.38;;;60.50;;
68655;SDS011;55638;51.122;13.606;2022-12-31T09:46:33;38.03;;;36.35;;
68655;SDS011;55638;51.122;13.606;2022-12-31T09:56:01;55.25;;;52.75;;
68655;SDS011;55638;51.122;13.606;2022-12-31T09:57:41;43.70;;;41.80;;
68655;SDS011;55638;51.122;13.606;2022-12-31T09:59:44;39.37;;;37.60;;
68655;SDS011;55638;51.122;13.606;2022-12-31T10:05:11;35.53;;;33.97;;
68655;SDS011;55638;51.122;13.606;2022-12-31T10:07:04;30.17;;;28.90;;
68655;SDS011;55638;51.122;13.606;2022-12-31T10:08:48;40.55;;;38.72;;
68655;SDS011;55638;51.122;13.606;2022-12-31T10:17:26;39.30;;;37.60;;
68655;SDS011;55638;51.122;13.606;2022-12-31T10:21:10;51.25;;;48.97;;
68655;SDS011;55638;51.122;13.606;2022-12-31T10:26:40;42.85;;;40.92;;
68655;SDS011;55638;51.122;13.606;2022-12-31T10:30:30;48.33;;;46.22;;
68655;SDS011;55638;51.122;13.606;2022-12-31T10:36:30;49.17;;;47.05;;
68655;SDS011;55638;51.122;13.606;2022-12-31T10:41:45;38.75;;;37.00;;
68655;SDS011;55638;51.122;13.606;2022-12-31T10:45:32;39.25;;;37.47;;
68655;SDS011;55638;51.122;13.606;2022-12-31T10:47:26;41.33;;;39.53;;
68655;SDS011;55638;51.122;13.606;2022-12-31T10:49:26;31.52;;;30.15;;
68655;SDS011;55638;51.122;13.606;2022-12-31T10:53:15;37.33;;;35.72;;
68655;SDS011;55638;51.122;13.606;2022-12-31T10:55:34;36.20;;;34.63;;
68655;SDS011;55638;51.122;13.606;2022-12-31T10:57:16;46.25;;;44.22;;